Terminal Aerodrome Forecast
Issued by NWS

Home | Current Version | Previous Version | Text Only | Print | Product List | Glossary On
Versions: 1 2 3 4 5 6 7 8 9 10 11 12 13 14 15
000
FTUS43 KBIS 191400 AAA
TAFDIK
TAF AMD
KDIK 191413Z 1914/2012 28012KT P6SM SCT180
     FM191700 29019G30KT P6SM SCT250
     FM200300 28009KT P6SM SCT070=

USA.gov is the U.S. government's official web portal to all federal, state and local government web resources and services.